createdAt,value
2023-05-13T00:01:31.671Z,15.10
2023-05-13T00:04:36.578Z,15.10
2023-05-13T00:07:41.511Z,15.00
2023-05-13T00:10:44.653Z,15.00
2023-05-13T00:13:49.100Z,14.90
2023-05-13T00:16:52.206Z,14.90
2023-05-13T00:19:55.220Z,14.80
2023-05-13T00:23:00.024Z,14.80
2023-05-13T00:26:03.176Z,14.70
2023-05-13T00:29:07.791Z,14.70
2023-05-13T00:32:10.900Z,14.60
2023-05-13T00:35:14.264Z,14.60
2023-05-13T00:38:17.733Z,14.60
2023-05-13T00:41:21.843Z,14.50
2023-05-13T00:44:27.944Z,14.50
2023-05-13T00:47:31.131Z,14.40
2023-05-13T00:50:35.388Z,14.40
2023-05-13T00:53:40.605Z,14.40
2023-05-13T00:56:43.614Z,14.30
2023-05-13T00:59:48.132Z,14.40
2023-05-13T01:02:58.781Z,14.40
2023-05-13T01:06:10.002Z,14.30
2023-05-13T01:09:21.299Z,14.30
2023-05-13T01:12:31.884Z,14.30
2023-05-13T01:15:41.960Z,14.30
2023-05-13T01:18:50.325Z,14.30
2023-05-13T01:21:55.213Z,14.30
2023-05-13T01:24:58.283Z,14.30
2023-05-13T01:28:02.839Z,14.30
2023-05-13T01:31:06.472Z,14.30
2023-05-13T01:34:11.488Z,14.20
2023-05-13T01:37:16.090Z,14.20
2023-05-13T01:40:31.663Z,14.30
2023-05-13T01:43:35.833Z,14.20
2023-05-13T01:46:40.581Z,14.20
2023-05-13T01:49:44.169Z,14.10
2023-05-13T01:52:48.760Z,14.00
2023-05-13T01:55:52.128Z,14.00
2023-05-13T01:58:55.168Z,14.00
2023-05-13T02:01:58.198Z,14.00
2023-05-13T02:05:01.223Z,13.90
2023-05-13T02:08:07.826Z,13.90
2023-05-13T02:11:10.869Z,13.90
2023-05-13T02:14:13.932Z,13.90
2023-05-13T02:17:16.943Z,13.90
2023-05-13T02:20:20.394Z,13.90
2023-05-13T02:23:24.974Z,13.90
2023-05-13T02:26:28.039Z,13.90
2023-05-13T02:29:31.072Z,13.80
2023-05-13T02:32:34.120Z,13.70
2023-05-13T02:35:38.471Z,13.60
2023-05-13T02:38:42.935Z,13.70
2023-05-13T02:41:45.948Z,13.60
2023-05-13T02:44:49.538Z,13.60
2023-05-13T02:47:52.850Z,13.50
2023-05-13T02:50:56.620Z,13.60
2023-05-13T02:54:01.216Z,13.60
2023-05-13T02:57:04.308Z,13.60
2023-05-13T03:00:12.546Z,13.70
2023-05-13T03:03:16.048Z,13.60
2023-05-13T03:06:19.225Z,13.70
2023-05-13T03:09:23.720Z,13.60
2023-05-13T03:12:26.866Z,13.60
2023-05-13T03:15:29.997Z,13.60
2023-05-13T03:18:33.090Z,13.60
2023-05-13T03:21:36.242Z,13.50
2023-05-13T03:24:41.657Z,13.40
2023-05-13T03:27:44.723Z,13.30
2023-05-13T03:30:47.825Z,13.30
2023-05-13T03:33:50.767Z,13.30
2023-05-13T03:36:53.718Z,13.20
2023-05-13T03:39:59.313Z,13.10
2023-05-13T03:43:02.476Z,13.10
2023-05-13T03:46:05.559Z,13.10
2023-05-13T03:49:08.553Z,13.10
2023-05-13T03:52:11.706Z,13.00
2023-05-13T03:55:16.146Z,13.00
2023-05-13T03:58:21.677Z,13.00
2023-05-13T04:01:24.695Z,13.00
2023-05-13T04:04:27.980Z,12.90
2023-05-13T04:07:31.007Z,13.00
2023-05-13T04:10:35.650Z,13.00
2023-05-13T04:13:38.745Z,13.00
2023-05-13T04:16:41.759Z,13.00
2023-05-13T04:19:44.815Z,13.00
2023-05-13T04:22:47.853Z,13.00
2023-05-13T04:25:53.630Z,13.00
2023-05-13T04:28:56.651Z,13.00
2023-05-13T04:32:00.103Z,13.10
2023-05-13T04:35:03.336Z,13.10
2023-05-13T04:38:06.809Z,13.10
2023-05-13T04:41:11.328Z,13.20
2023-05-13T04:44:14.376Z,13.20
2023-05-13T04:47:17.433Z,13.30
2023-05-13T04:50:20.557Z,13.30
2023-05-13T04:53:23.716Z,13.50
2023-05-13T04:56:29.455Z,13.50
2023-05-13T04:59:32.651Z,13.70
2023-05-13T05:02:35.683Z,13.90
2023-05-13T05:05:38.691Z,14.00
2023-05-13T05:08:41.748Z,14.30
2023-05-13T05:11:46.406Z,14.40
2023-05-13T05:14:49.373Z,14.60
2023-05-13T05:17:52.835Z,14.80
2023-05-13T05:20:56.007Z,15.00
2023-05-13T05:23:59.793Z,15.30
2023-05-13T05:27:04.293Z,15.50
2023-05-13T05:30:09.025Z,15.70
2023-05-13T05:33:12.151Z,16.00
2023-05-13T05:36:15.215Z,16.20
2023-05-13T05:39:19.591Z,16.40
2023-05-13T05:42:24.499Z,16.50
2023-05-13T05:45:27.682Z,16.70
2023-05-13T05:48:34.468Z,16.80
2023-05-13T05:51:37.865Z,17.00
2023-05-13T05:54:40.921Z,17.20
2023-05-13T05:57:45.301Z,17.40
2023-05-13T06:00:48.360Z,17.60
2023-05-13T06:03:53.161Z,17.80
2023-05-13T06:06:57.828Z,18.00
2023-05-13T06:10:00.880Z,18.10
2023-05-13T06:13:05.401Z,18.30
2023-05-13T06:16:08.449Z,18.60
2023-05-13T06:19:11.516Z,18.80
2023-05-13T06:22:15.820Z,19.00
2023-05-13T06:25:20.100Z,19.30
2023-05-13T06:28:24.511Z,19.50
2023-05-13T06:31:29.049Z,19.70
2023-05-13T06:34:32.470Z,20.00
2023-05-13T06:37:35.579Z,19.90
2023-05-13T06:40:38.563Z,20.00
2023-05-13T06:43:45.537Z,20.10
2023-05-13T06:46:48.582Z,20.40
2023-05-13T06:49:51.622Z,20.60
2023-05-13T06:52:54.592Z,20.50
2023-05-13T06:55:57.837Z,20.70
2023-05-13T06:59:02.275Z,20.80
2023-05-13T07:02:05.601Z,20.70
2023-05-13T07:05:10.890Z,20.60
2023-05-13T07:08:17.840Z,20.50
2023-05-13T07:11:21.180Z,20.70
2023-05-13T07:14:26.332Z,20.60
2023-05-13T07:17:31.305Z,20.60
2023-05-13T07:20:34.670Z,20.60
2023-05-13T07:23:38.066Z,20.50
2023-05-13T07:26:41.034Z,20.30
2023-05-13T07:29:45.366Z,20.00
2023-05-13T07:32:48.517Z,20.00
2023-05-13T07:35:53.660Z,20.00
2023-05-13T07:38:59.553Z,20.10
2023-05-13T07:42:02.686Z,20.00
2023-05-13T07:45:08.524Z,20.00
2023-05-13T07:48:11.919Z,19.90
2023-05-13T07:51:16.284Z,19.80
2023-05-13T07:54:19.339Z,19.70
2023-05-13T07:57:22.330Z,19.70
2023-05-13T08:00:26.833Z,19.60
2023-05-13T08:03:30.180Z,19.60
2023-05-13T08:06:33.358Z,19.60
2023-05-13T08:09:36.377Z,19.70
2023-05-13T08:12:40.461Z,19.70
2023-05-13T08:15:44.857Z,19.50
2023-05-13T08:18:47.999Z,19.60
2023-05-13T08:21:51.263Z,19.50
2023-05-13T08:24:54.399Z,19.50
2023-05-13T08:27:58.181Z,19.50
2023-05-13T08:31:03.501Z,19.50
2023-05-13T08:34:06.499Z,19.50
2023-05-13T08:37:09.570Z,19.60
2023-05-13T08:40:13.285Z,19.70
2023-05-13T08:43:17.282Z,19.70
2023-05-13T08:46:25.168Z,19.90
2023-05-13T08:49:28.744Z,20.00
2023-05-13T08:52:33.215Z,20.10
2023-05-13T08:55:36.201Z,20.20
2023-05-13T08:58:39.294Z,20.30
2023-05-13T09:01:44.469Z,20.60
2023-05-13T09:04:52.233Z,20.70
2023-05-13T09:07:55.420Z,20.60
2023-05-13T09:10:58.689Z,20.70
2023-05-13T09:14:07.361Z,20.70
2023-05-13T09:17:12.098Z,20.80
2023-05-13T09:20:16.652Z,20.80
2023-05-13T09:23:19.920Z,20.90
2023-05-13T09:26:29.747Z,21.10
2023-05-13T09:29:33.323Z,21.10
2023-05-13T09:32:37.796Z,21.10
2023-05-13T09:35:42.218Z,21.10
2023-05-13T09:38:45.339Z,21.10
2023-05-13T09:41:49.186Z,21.10
2023-05-13T09:44:52.388Z,21.20
2023-05-13T09:47:57.453Z,21.40
2023-05-13T09:51:00.654Z,21.40
2023-05-13T09:54:07.308Z,21.50
2023-05-13T09:57:14.181Z,21.50
2023-05-13T10:00:28.750Z,21.50
2023-05-13T10:03:36.484Z,21.50
2023-05-13T10:06:40.438Z,21.70
2023-05-13T10:09:45.934Z,21.60
2023-05-13T10:12:53.752Z,21.50
2023-05-13T10:15:57.387Z,21.60
2023-05-13T10:19:02.397Z,21.70
2023-05-13T10:22:06.948Z,21.70
2023-05-13T10:25:11.412Z,21.70
2023-05-13T10:28:17.430Z,21.70
2023-05-13T10:31:20.414Z,21.70
2023-05-13T10:34:26.434Z,21.90
2023-05-13T10:37:53.269Z,21.90
2023-05-13T10:41:15.757Z,21.90
2023-05-13T10:44:20.203Z,21.90
2023-05-13T10:47:23.269Z,21.90
2023-05-13T10:50:28.063Z,22.00
2023-05-13T10:53:32.975Z,21.90
2023-05-13T10:56:36.192Z,21.90
2023-05-13T11:00:15.297Z,22.00
2023-05-13T11:03:29.847Z,22.20
2023-05-13T11:06:37.658Z,22.20
2023-05-13T11:09:40.658Z,22.20
2023-05-13T11:12:43.703Z,22.30
2023-05-13T11:15:49.761Z,22.20
2023-05-13T11:18:53.816Z,22.10
2023-05-13T11:22:00.200Z,22.30
2023-05-13T11:25:06.794Z,22.50
2023-05-13T11:28:09.833Z,22.50
2023-05-13T11:31:18.126Z,22.40
2023-05-13T11:34:21.857Z,22.50
2023-05-13T11:37:26.259Z,22.60
2023-05-13T11:40:30.985Z,22.60
2023-05-13T11:43:36.431Z,22.60
2023-05-13T11:46:40.627Z,22.60
2023-05-13T11:49:46.355Z,22.70
2023-05-13T11:52:54.678Z,22.80
2023-05-13T11:55:57.750Z,22.70
2023-05-13T11:59:16.209Z,22.80
2023-05-13T12:02:22.463Z,22.90
2023-05-13T12:05:27.401Z,22.90
2023-05-13T12:08:32.810Z,23.00
2023-05-13T12:11:36.374Z,23.10
2023-05-13T12:14:39.627Z,23.00
2023-05-13T12:17:43.127Z,23.00
2023-05-13T12:20:47.051Z,23.10
2023-05-13T12:23:51.722Z,23.30
2023-05-13T12:27:05.409Z,23.30
2023-05-13T12:30:16.002Z,23.20
2023-05-13T12:33:20.106Z,23.00
2023-05-13T12:36:27.880Z,23.00
2023-05-13T12:39:32.364Z,23.10
2023-05-13T12:42:36.416Z,23.10
2023-05-13T12:45:44.786Z,23.20
2023-05-13T12:48:48.334Z,23.30
2023-05-13T12:51:51.819Z,23.30
2023-05-13T12:54:56.270Z,23.40
2023-05-13T12:58:02.067Z,23.60
2023-05-13T13:01:06.276Z,23.50
2023-05-13T13:04:10.638Z,23.30
2023-05-13T13:07:14.682Z,23.30
2023-05-13T13:10:19.666Z,23.30
2023-05-13T13:13:22.673Z,23.20
2023-05-13T13:16:25.771Z,23.30
2023-05-13T13:19:29.154Z,23.40
2023-05-13T13:22:32.389Z,23.40
2023-05-13T13:25:37.282Z,23.30
2023-05-13T13:28:40.337Z,23.40
2023-05-13T13:31:43.362Z,23.40
2023-05-13T13:34:46.489Z,23.80
2023-05-13T13:37:49.463Z,24.00
2023-05-13T13:40:53.786Z,24.00
2023-05-13T13:43:56.813Z,23.60
2023-05-13T13:47:00.051Z,23.40
2023-05-13T13:50:03.117Z,23.10
2023-05-13T13:53:06.964Z,22.90
2023-05-13T13:56:11.289Z,22.80
2023-05-13T13:59:14.670Z,22.70
2023-05-13T14:02:18.829Z,22.60
2023-05-13T14:05:21.938Z,22.50
2023-05-13T14:08:25.274Z,22.60
2023-05-13T14:11:29.626Z,22.50
2023-05-13T14:14:32.591Z,22.70
2023-05-13T14:17:35.756Z,22.90
2023-05-13T14:20:39.252Z,23.10
2023-05-13T14:23:43.380Z,23.20
2023-05-13T14:26:50.865Z,23.20
2023-05-13T14:29:54.186Z,23.20
2023-05-13T14:32:57.496Z,23.10
2023-05-13T14:36:00.817Z,22.90
2023-05-13T14:39:04.137Z,23.10
2023-05-13T14:42:08.802Z,23.20
2023-05-13T14:45:15.341Z,23.30
2023-05-13T14:48:20.972Z,23.50
2023-05-13T14:51:24.143Z,23.50
2023-05-13T14:54:27.090Z,23.50
2023-05-13T14:57:31.647Z,23.40
2023-05-13T15:00:34.635Z,23.40
2023-05-13T15:03:38.926Z,23.30
2023-05-13T15:06:43.159Z,23.40
2023-05-13T15:09:46.127Z,23.60
2023-05-13T15:12:50.540Z,23.70
2023-05-13T15:15:56.015Z,23.80
2023-05-13T15:18:59.215Z,23.90
2023-05-13T15:22:02.240Z,24.00
2023-05-13T15:25:05.917Z,23.90
2023-05-13T15:28:10.371Z,24.00
2023-05-13T15:31:13.408Z,23.90
2023-05-13T15:34:16.437Z,24.00
2023-05-13T15:37:19.460Z,24.20
2023-05-13T15:40:24.409Z,24.20
2023-05-13T15:43:30.933Z,24.30
2023-05-13T15:46:34.647Z,24.50
2023-05-13T15:49:37.823Z,24.60
2023-05-13T15:52:40.820Z,24.40
2023-05-13T15:55:43.892Z,24.00
2023-05-13T15:58:48.413Z,23.60
2023-05-13T16:01:51.484Z,23.20
2023-05-13T16:04:54.588Z,23.00
2023-05-13T16:07:57.885Z,22.60
2023-05-13T16:11:00.902Z,22.30
2023-05-13T16:14:07.479Z,21.80
2023-05-13T16:17:10.742Z,21.40
2023-05-13T16:20:14.195Z,21.10
2023-05-13T16:23:17.154Z,21.00
2023-05-13T16:26:20.224Z,20.90
2023-05-13T16:29:25.406Z,20.90
2023-05-13T16:32:29.361Z,20.80
2023-05-13T16:35:32.451Z,20.70
2023-05-13T16:38:36.339Z,20.70
2023-05-13T16:41:40.308Z,20.50
2023-05-13T16:44:44.753Z,20.50
2023-05-13T16:47:47.801Z,20.50
2023-05-13T16:50:51.207Z,20.30
2023-05-13T16:53:54.169Z,20.30
2023-05-13T16:56:57.173Z,20.10
2023-05-13T17:00:01.534Z,20.10
2023-05-13T17:03:05.084Z,20.10
2023-05-13T17:06:08.439Z,20.00
2023-05-13T17:09:11.870Z,19.90
2023-05-13T17:12:16.534Z,19.80
2023-05-13T17:15:21.384Z,19.90
2023-05-13T17:18:26.328Z,19.90
2023-05-13T17:21:29.424Z,19.90
2023-05-13T17:24:32.358Z,19.90
2023-05-13T17:27:35.342Z,19.80
2023-05-13T17:30:39.730Z,19.70
2023-05-13T17:33:42.905Z,19.70
2023-05-13T17:36:47.375Z,19.60
2023-05-13T17:39:51.765Z,19.50
2023-05-13T17:42:54.820Z,19.40
2023-05-13T17:45:59.566Z,19.30
2023-05-13T17:49:02.609Z,19.20
2023-05-13T17:52:06.810Z,19.00
2023-05-13T17:55:10.484Z,18.90
2023-05-13T17:58:13.443Z,18.70
2023-05-13T18:01:19.751Z,18.60
2023-05-13T18:04:23.240Z,18.60
2023-05-13T18:07:26.557Z,18.50
2023-05-13T18:10:30.011Z,18.50
2023-05-13T18:13:33.093Z,18.50
2023-05-13T18:16:37.560Z,18.40
2023-05-13T18:19:41.023Z,18.20
2023-05-13T18:22:44.177Z,18.10
2023-05-13T18:25:55.493Z,18.00
2023-05-13T18:28:59.409Z,17.90
2023-05-13T18:32:04.860Z,17.90
2023-05-13T18:35:08.710Z,17.80
2023-05-13T18:38:11.763Z,17.70
2023-05-13T18:41:15.131Z,17.60
2023-05-13T18:44:18.203Z,17.50
2023-05-13T18:47:25.931Z,17.50
2023-05-13T18:50:28.968Z,17.40
2023-05-13T18:53:32.115Z,17.40
2023-05-13T18:56:36.153Z,17.20
2023-05-13T18:59:45.012Z,17.20
2023-05-13T19:02:52.771Z,17.00
2023-05-13T19:05:59.131Z,16.90
2023-05-13T19:09:03.637Z,16.90
2023-05-13T19:12:08.717Z,16.70
2023-05-13T19:15:14.731Z,16.60
2023-05-13T19:18:21.839Z,16.50
2023-05-13T19:21:27.559Z,16.50
2023-05-13T19:24:30.606Z,16.40
2023-05-13T19:27:34.071Z,16.30
2023-05-13T19:30:39.887Z,16.20
2023-05-13T19:33:51.872Z,16.10
2023-05-13T19:36:55.030Z,16.10
2023-05-13T19:39:58.201Z,16.00
2023-05-13T19:43:07.500Z,15.90
2023-05-13T19:46:10.840Z,15.80
2023-05-13T19:49:15.738Z,15.70
2023-05-13T19:52:18.865Z,15.60
2023-05-13T19:55:25.222Z,15.60
2023-05-13T19:58:30.410Z,15.50
2023-05-13T20:01:33.682Z,15.40
2023-05-13T20:04:39.464Z,15.40
2023-05-13T20:07:42.498Z,15.30
2023-05-13T20:10:45.543Z,15.20
2023-05-13T20:13:48.600Z,15.20
2023-05-13T20:16:51.986Z,15.10
2023-05-13T20:19:56.745Z,15.10
2023-05-13T20:23:00.163Z,15.00
2023-05-13T20:26:03.176Z,15.00
2023-05-13T20:29:06.322Z,15.00
2023-05-13T20:32:09.428Z,14.90
2023-05-13T20:35:14.029Z,14.90
2023-05-13T20:38:17.165Z,14.80
2023-05-13T20:41:20.133Z,14.80
2023-05-13T20:44:23.288Z,14.80
2023-05-13T20:47:27.075Z,14.70
2023-05-13T20:50:31.549Z,14.70
2023-05-13T20:53:34.644Z,14.70
2023-05-13T20:56:37.955Z,14.60
2023-05-13T20:59:41.056Z,14.60
2023-05-13T21:02:44.100Z,14.60
2023-05-13T21:05:48.561Z,14.60
2023-05-13T21:08:52.135Z,14.50
2023-05-13T21:11:55.117Z,14.50
2023-05-13T21:14:58.389Z,14.50
2023-05-13T21:18:02.638Z,14.50
2023-05-13T21:21:11.181Z,14.40
2023-05-13T21:24:14.641Z,14.40
2023-05-13T21:27:18.241Z,14.30
2023-05-13T21:30:21.833Z,14.30
2023-05-13T21:33:25.000Z,14.30
2023-05-13T21:36:29.549Z,14.20
2023-05-13T21:39:32.534Z,14.20
2023-05-13T21:42:35.619Z,14.20
2023-05-13T21:45:38.880Z,14.20
2023-05-13T21:48:42.059Z,14.10
2023-05-13T21:51:46.515Z,14.10
2023-05-13T21:54:49.678Z,14.10
2023-05-13T21:57:52.642Z,14.10
2023-05-13T22:00:55.909Z,14.10
2023-05-13T22:03:58.914Z,14.10
2023-05-13T22:07:03.914Z,14.10
2023-05-13T22:10:09.006Z,14.20
2023-05-13T22:13:12.035Z,14.30
2023-05-13T22:16:15.171Z,14.30
2023-05-13T22:19:20.149Z,14.30
2023-05-13T22:22:24.487Z,14.30
2023-05-13T22:25:27.542Z,14.30
2023-05-13T22:28:30.513Z,14.30
2023-05-13T22:31:33.560Z,14.20
2023-05-13T22:34:36.585Z,14.20
2023-05-13T22:37:41.113Z,14.10
2023-05-13T22:40:44.252Z,14.10
2023-05-13T22:43:47.284Z,14.10
2023-05-13T22:46:52.173Z,14.00
2023-05-13T22:49:55.257Z,14.00
2023-05-13T22:52:59.603Z,13.90
2023-05-13T22:56:02.670Z,13.90
2023-05-13T22:59:05.908Z,13.90
2023-05-13T23:02:08.934Z,13.90
2023-05-13T23:05:12.225Z,13.80
2023-05-13T23:08:16.653Z,13.80
2023-05-13T23:11:19.684Z,13.70
2023-05-13T23:14:22.699Z,13.70
2023-05-13T23:17:25.731Z,13.70
2023-05-13T23:20:29.141Z,13.60
2023-05-13T23:23:33.919Z,13.60
2023-05-13T23:26:36.966Z,13.50
2023-05-13T23:29:39.939Z,13.50
2023-05-13T23:32:43.184Z,13.50
2023-05-13T23:35:46.262Z,13.50
2023-05-13T23:38:51.029Z,13.40
2023-05-13T23:41:54.054Z,13.30
2023-05-13T23:44:57.122Z,13.30
2023-05-13T23:48:00.243Z,13.30
2023-05-13T23:51:03.353Z,13.30
2023-05-13T23:54:08.190Z,13.30
2023-05-13T23:57:11.344Z,13.20
